Mehtap Bayraktar — TCPB — position and weather

sailwx.info

Track history (hours):
 
Tides and Currents Weather Stations Pressure Air Temp Water Temp Dewpoint Dewpoint Depression Visibility Wind Speed Wind Dir Waves Ship Positions

Mehtap Bayraktar

Last reported at 2016-Dec-02 00:33 UTC. Time now 2016-Dec-04 20:18 UTC.
Position N 37°22' E 023°56'.

Length 114 m; draft 5 m.

Type: Cargo ship. MMSI: 271000578.

Date/timePositionNaut miles runAvg speedWind from/ knotsBaromVisibWave heightAir tempDewpointWater temp
2016-Dec-02 00:33N 37°22' E 023°56'1212.3
2016-Dec-01 23:32N 37°33' E 024°04'1211.9
2016-Dec-01 22:33N 37°41' E 024°14'1212.2
2016-Dec-01 21:33N 37°49' E 024°25'  
2016-Nov-29 17:31N 40°55' E 028°46'1211.2
2016-Nov-29 16:26N 41°00' E 029°00'0 0.0
2016-Nov-28 20:16N 41°00' E 029°00'  
2016-Nov-26 11:31N 44°14' E 037°28'1111.7
2016-Nov-26 10:33N 44°22' E 037°39'1211.6
2016-Nov-26 09:33N 44°31' E 037°50'6 6.1
2016-Nov-26 08:33N 44°35' E 037°56'0 0.0
2016-Nov-26 07:33N 44°35' E 037°56'0 0.1
2016-Nov-26 06:33N 44°36' E 037°56'0 0.0
2016-Nov-26 05:30N 44°36' E 037°56'0 0.0
2016-Nov-26 04:33N 44°36' E 037°56'0 0.0
2016-Nov-26 03:33N 44°36' E 037°56'0 0.0
2016-Nov-26 02:33N 44°36' E 037°56'0 0.0
2016-Nov-26 01:33N 44°36' E 037°56'0 0.0
2016-Nov-26 00:33N 44°36' E 037°56'0 0.0
2016-Nov-25 23:33N 44°36' E 037°56'0 0.0
2016-Nov-25 22:33N 44°36' E 037°56'1 1.3
2016-Nov-25 21:33N 44°36' E 037°54'8 7.6
2016-Nov-25 20:33N 44°42' E 037°49'2 1.8
2016-Nov-25 19:33N 44°44' E 037°47'0 0.0
2016-Nov-25 18:33N 44°44' E 037°47'0 0.0
2016-Nov-25 17:33N 44°44' E 037°47'0 0.0
2016-Nov-25 16:33N 44°44' E 037°47'0 0.0
2016-Nov-25 15:33N 44°44' E 037°47'0 0.0
2016-Nov-25 14:33N 44°44' E 037°47'0 0.0
2016-Nov-25 13:33N 44°44' E 037°47'0 0.2
2016-Nov-25 12:33N 44°44' E 037°47'7 7.0
2016-Nov-25 11:33N 44°37' E 037°52'9 8.6
2016-Nov-25 10:33N 44°29' E 037°47'1111.0
2016-Nov-25 09:33N 44°22' E 037°36'1111.4
2016-Nov-25 08:33N 44°13' E 037°25'  
Track history (hours):
 
Tides and Currents Weather Stations Pressure Air Temp Water Temp Dewpoint Dewpoint Depression Visibility Wind Speed Wind Dir Waves Ship Positions

Mehtap Bayraktar

Last reported at 2016-Dec-02 00:33 UTC. Time now 2016-Dec-04 20:18 UTC.
Position N 37°22' E 023°56'.

Length 114 m; draft 5 m.

Type: Cargo ship. MMSI: 271000578.

Date/timePositionNaut miles runAvg speedWind from/ knotsBaromVisibWave heightAir tempDewpointWater temp
2016-Dec-02 00:33N 37°22' E 023°56'1212.3
2016-Dec-01 23:32N 37°33' E 024°04'1211.9
2016-Dec-01 22:33N 37°41' E 024°14'1212.2
2016-Dec-01 21:33N 37°49' E 024°25'  
2016-Nov-29 17:31N 40°55' E 028°46'1211.2
2016-Nov-29 16:26N 41°00' E 029°00'0 0.0
2016-Nov-28 20:16N 41°00' E 029°00'  
2016-Nov-26 11:31N 44°14' E 037°28'1111.7
2016-Nov-26 10:33N 44°22' E 037°39'1211.6
2016-Nov-26 09:33N 44°31' E 037°50'6 6.1
2016-Nov-26 08:33N 44°35' E 037°56'0 0.0
2016-Nov-26 07:33N 44°35' E 037°56'0 0.1
2016-Nov-26 06:33N 44°36' E 037°56'0 0.0
2016-Nov-26 05:30N 44°36' E 037°56'0 0.0
2016-Nov-26 04:33N 44°36' E 037°56'0 0.0
2016-Nov-26 03:33N 44°36' E 037°56'0 0.0
2016-Nov-26 02:33N 44°36' E 037°56'0 0.0
2016-Nov-26 01:33N 44°36' E 037°56'0 0.0
2016-Nov-26 00:33N 44°36' E 037°56'0 0.0
2016-Nov-25 23:33N 44°36' E 037°56'0 0.0
2016-Nov-25 22:33N 44°36' E 037°56'1 1.3
2016-Nov-25 21:33N 44°36' E 037°54'8 7.6
2016-Nov-25 20:33N 44°42' E 037°49'2 1.8
2016-Nov-25 19:33N 44°44' E 037°47'0 0.0
2016-Nov-25 18:33N 44°44' E 037°47'0 0.0
2016-Nov-25 17:33N 44°44' E 037°47'0 0.0
2016-Nov-25 16:33N 44°44' E 037°47'0 0.0
2016-Nov-25 15:33N 44°44' E 037°47'0 0.0
2016-Nov-25 14:33N 44°44' E 037°47'0 0.0
2016-Nov-25 13:33N 44°44' E 037°47'0 0.2
2016-Nov-25 12:33N 44°44' E 037°47'7 7.0
2016-Nov-25 11:33N 44°37' E 037°52'9 8.6
2016-Nov-25 10:33N 44°29' E 037°47'1111.0
2016-Nov-25 09:33N 44°22' E 037°36'1111.4
2016-Nov-25 08:33N 44°13' E 037°25'  

Dump ship's entire track history